createdAt,value
2022-08-02T00:02:42.474Z,1018.16
2022-08-02T00:07:39.101Z,1018.15
2022-08-02T00:12:27.637Z,1018.15
2022-08-02T00:17:20.216Z,1018.15
2022-08-02T00:22:13.217Z,1018.13
2022-08-02T00:27:09.146Z,1018.14
2022-08-02T00:31:57.686Z,1018.14
2022-08-02T00:36:50.039Z,1018.11
2022-08-02T00:41:42.861Z,1018.16
2022-08-02T00:46:35.595Z,1018.08
2022-08-02T00:51:28.370Z,1018.14
2022-08-02T00:56:20.630Z,1018.08
2022-08-02T01:01:13.455Z,1018.15
2022-08-02T01:06:13.088Z,1018.05
2022-08-02T01:10:58.667Z,1018.09
2022-08-02T01:15:51.305Z,1018.09
2022-08-02T01:20:43.882Z,1018.13
2022-08-02T01:25:36.350Z,1018.08
2022-08-02T01:30:28.778Z,1018.07
2022-08-02T01:35:21.536Z,1018.17
2022-08-02T01:40:14.039Z,1018.11
2022-08-02T01:45:06.707Z,1018.11
2022-08-02T01:49:59.248Z,1018.17
2022-08-02T01:54:52.052Z,1018.17
2022-08-02T01:59:44.369Z,1018.22
2022-08-02T02:04:36.876Z,1018.23
2022-08-02T02:09:29.407Z,1018.21
2022-08-02T02:14:22.221Z,1018.2
2022-08-02T02:19:14.624Z,1018.22
2022-08-02T02:24:10.353Z,1018.22
2022-08-02T02:28:59.805Z,1018.22
2022-08-02T02:33:52.467Z,1018.27
2022-08-02T02:38:44.992Z,1018.24
2022-08-02T02:43:37.576Z,1018.3
2022-08-02T02:48:30.041Z,1018.28
2022-08-02T02:53:22.479Z,1018.27
2022-08-02T02:58:15.281Z,1018.28
2022-08-02T03:03:07.665Z,1018.28
2022-08-02T03:08:00.157Z,1018.27
2022-08-02T03:12:52.674Z,1018.31
2022-08-02T03:17:45.131Z,1018.31
2022-08-02T03:22:37.838Z,1018.34
2022-08-02T03:27:30.598Z,1018.38
2022-08-02T03:37:15.652Z,1018.44
2022-08-02T03:47:01.056Z,1018.58
2022-08-02T03:51:53.556Z,1018.52
2022-08-02T03:56:46.053Z,1018.5
2022-08-02T04:01:38.712Z,1018.54
2022-08-02T04:06:31.499Z,1018.55
2022-08-02T04:11:23.978Z,1018.66
2022-08-02T04:16:15.919Z,1018.65
2022-08-02T04:21:07.938Z,1018.74
2022-08-02T04:26:00.350Z,1018.79
2022-08-02T04:30:52.583Z,1018.83
2022-08-02T04:35:45.000Z,1018.87
2022-08-02T04:40:37.646Z,1018.88
2022-08-02T04:45:30.180Z,1018.95
2022-08-02T04:50:22.754Z,1018.91
2022-08-02T04:55:15.137Z,1018.94
2022-08-02T05:00:08.245Z,1019.01
2022-08-02T05:05:00.679Z,1018.94
2022-08-02T05:09:53.227Z,1019.02
2022-08-02T05:14:45.811Z,1019.03
2022-08-02T05:19:38.600Z,1019.1
2022-08-02T05:24:31.154Z,1019.08
2022-08-02T05:29:24.204Z,1019.1
2022-08-02T05:34:16.214Z,1019.25
2022-08-02T05:39:10.785Z,1019.26
2022-08-02T05:44:01.686Z,1019.25
2022-08-02T05:48:54.304Z,1019.27
2022-08-02T05:53:47.509Z,1019.25
2022-08-02T05:58:39.523Z,1019.26
2022-08-02T06:03:32.122Z,1019.28
2022-08-02T06:08:24.753Z,1019.34
2022-08-02T06:13:17.476Z,1019.35
2022-08-02T06:18:09.924Z,1019.37
2022-08-02T06:23:02.448Z,1019.37
2022-08-02T06:27:55.331Z,1019.33
2022-08-02T06:32:47.800Z,1019.25
2022-08-02T06:37:40.305Z,1019.22
2022-08-02T06:42:32.982Z,1019.26
2022-08-02T06:47:25.609Z,1019.21
2022-08-02T06:52:19.155Z,1019.19
2022-08-02T06:57:10.722Z,1019.17
2022-08-02T07:02:03.628Z,1019.13
2022-08-02T07:06:56.500Z,1019.06
2022-08-02T07:11:49.385Z,1019.04
2022-08-02T07:16:42.054Z,1019.03
2022-08-02T07:21:57.319Z,1019.05
2022-08-02T07:26:27.115Z,1019.01
2022-08-02T07:31:19.638Z,1018.91
2022-08-02T07:36:17.109Z,1018.84
2022-08-02T07:41:05.004Z,1018.8
2022-08-02T07:46:00.586Z,1018.8
2022-08-02T07:50:50.763Z,1018.75
2022-08-02T07:55:43.451Z,1018.7
2022-08-02T08:00:36.427Z,1018.73
2022-08-02T08:05:29.397Z,1018.78
2022-08-02T08:10:21.924Z,1018.72
2022-08-02T08:15:14.397Z,1018.74
2022-08-02T08:20:07.181Z,1018.71
2022-08-02T08:24:59.870Z,1018.72
2022-08-02T08:29:52.546Z,1018.64
2022-08-02T08:34:45.266Z,1018.57
2022-08-02T08:39:37.738Z,1018.57
2022-08-02T08:44:30.182Z,1018.53
2022-08-02T08:49:23.046Z,1018.54
2022-08-02T08:54:15.457Z,1018.49
2022-08-02T08:59:08.414Z,1018.41
2022-08-02T09:04:00.931Z,1018.28
2022-08-02T09:08:53.543Z,1018.25
2022-08-02T09:13:46.288Z,1018.15
2022-08-02T09:18:38.335Z,1018.15
2022-08-02T09:23:31.098Z,1018.07
2022-08-02T09:28:23.786Z,1018.02
2022-08-02T09:33:16.458Z,1018.11
2022-08-02T09:38:08.994Z,1018.1
2022-08-02T09:43:01.690Z,1018.05
2022-08-02T09:47:54.189Z,1017.98
2022-08-02T09:52:47.156Z,1018.04
2022-08-02T09:57:39.554Z,1017.98
2022-08-02T10:02:32.217Z,1017.94
2022-08-02T10:07:24.749Z,1017.93
2022-08-02T10:12:17.269Z,1017.88
2022-08-02T10:17:09.779Z,1017.78
2022-08-02T10:22:02.306Z,1017.77
2022-08-02T10:26:54.878Z,1017.65
2022-08-02T10:31:47.630Z,1017.53
2022-08-02T10:41:33.321Z,1017.3
2022-08-02T10:51:18.247Z,1017.26
2022-08-02T11:01:03.546Z,1017.22
2022-08-02T11:10:48.811Z,1017.11
2022-08-02T11:20:34.027Z,1017.06
2022-08-02T11:30:19.507Z,1016.99
2022-08-02T11:40:05.795Z,1016.96
2022-08-02T11:44:57.510Z,1016.98
2022-08-02T11:49:50.267Z,1017.03
2022-08-02T11:54:42.824Z,1016.94
2022-08-02T11:59:35.837Z,1016.84
2022-08-02T12:04:28.877Z,1016.84
2022-08-02T12:09:21.620Z,1016.88
2022-08-02T12:14:14.468Z,1016.84
2022-08-02T12:19:07.447Z,1016.76
2022-08-02T12:24:01.300Z,1016.73
2022-08-02T12:28:52.622Z,1016.67
2022-08-02T12:33:45.082Z,1016.66
2022-08-02T12:38:37.949Z,1016.63
2022-08-02T12:43:30.653Z,1016.58
2022-08-02T12:48:23.323Z,1016.53
2022-08-02T12:53:15.944Z,1016.54
2022-08-02T12:58:08.756Z,1016.47
2022-08-02T13:03:01.619Z,1016.44
2022-08-02T13:07:54.301Z,1016.43
2022-08-02T13:12:46.825Z,1016.38
2022-08-02T13:17:39.348Z,1016.34
2022-08-02T13:22:31.971Z,1016.32
2022-08-02T13:27:24.670Z,1016.23
2022-08-02T13:32:17.696Z,1016.38
2022-08-02T13:37:09.876Z,1016.18
2022-08-02T13:42:02.443Z,1016.17
2022-08-02T13:46:54.756Z,1016.06
2022-08-02T13:51:47.338Z,1016.05
2022-08-02T13:56:39.987Z,1016.07
2022-08-02T14:01:32.727Z,1015.98
2022-08-02T14:06:25.391Z,1015.85
2022-08-02T14:11:18.024Z,1015.87
2022-08-02T14:16:10.447Z,1015.95
2022-08-02T14:21:03.141Z,1015.9
2022-08-02T14:25:55.950Z,1015.91
2022-08-02T14:30:48.489Z,1015.86
2022-08-02T14:35:41.324Z,1015.82
2022-08-02T14:40:33.960Z,1015.71
2022-08-02T14:45:26.746Z,1015.7
2022-08-02T14:50:19.154Z,1015.67
2022-08-02T14:55:15.450Z,1015.7
2022-08-02T15:00:04.683Z,1015.64
2022-08-02T15:04:57.402Z,1015.64
2022-08-02T15:09:50.034Z,1015.61
2022-08-02T15:14:42.483Z,1015.57
2022-08-02T15:19:57.135Z,1015.53
2022-08-02T15:24:27.723Z,1015.51
2022-08-02T15:29:20.291Z,1015.48
2022-08-02T15:34:13.114Z,1015.41
2022-08-02T15:39:05.830Z,1015.34
2022-08-02T15:44:00.503Z,1015.3
2022-08-02T15:48:51.212Z,1015.34
2022-08-02T15:53:43.785Z,1015.42
2022-08-02T15:58:40.625Z,1015.33
2022-08-02T16:03:29.124Z,1015.44
2022-08-02T16:08:21.722Z,1015.44
2022-08-02T16:13:14.466Z,1015.47
2022-08-02T16:18:07.021Z,1015.56
2022-08-02T16:22:59.656Z,1015.55
2022-08-02T16:27:59.248Z,1015.52
2022-08-02T16:32:45.273Z,1015.47
2022-08-02T16:37:50.625Z,1015.44
2022-08-02T16:42:31.211Z,1015.42
2022-08-02T16:47:24.938Z,1015.47
2022-08-02T16:52:16.308Z,1015.43
2022-08-02T16:57:08.891Z,1015.46
2022-08-02T17:02:02.002Z,1015.48
2022-08-02T17:06:54.033Z,1015.46
2022-08-02T17:16:40.025Z,1015.5
2022-08-02T17:26:25.653Z,1015.48
2022-08-02T17:36:11.597Z,1015.56
2022-08-02T17:41:04.390Z,1015.57
2022-08-02T17:46:01.170Z,1015.64
2022-08-02T17:50:49.487Z,1015.68
2022-08-02T17:55:42.651Z,1015.72
2022-08-02T18:00:34.761Z,1015.72
2022-08-02T18:05:35.464Z,1015.73
2022-08-02T18:10:20.050Z,1015.71
2022-08-02T18:15:14.352Z,1015.76
2022-08-02T18:20:10.305Z,1015.82
2022-08-02T18:24:57.784Z,1015.83
2022-08-02T18:29:59.968Z,1015.86
2022-08-02T18:34:44.446Z,1015.91
2022-08-02T18:39:38.419Z,1015.91
2022-08-02T18:44:28.066Z,1015.95
2022-08-02T18:49:20.756Z,1015.97
2022-08-02T18:54:13.025Z,1016.03
2022-08-02T18:59:05.661Z,1016.14
2022-08-02T19:03:58.109Z,1016.21
2022-08-02T19:08:59.785Z,1016.24
2022-08-02T19:13:43.673Z,1016.25
2022-08-02T19:18:35.968Z,1016.27
2022-08-02T19:23:28.495Z,1016.35
2022-08-02T19:28:25.769Z,1016.31
2022-08-02T19:33:25.145Z,1016.36
2022-08-02T19:38:07.617Z,1016.32
2022-08-02T19:44:20.530Z,1016.35
2022-08-02T19:47:54.407Z,1016.36
2022-08-02T19:52:45.235Z,1016.35
2022-08-02T19:57:37.781Z,1016.44
2022-08-02T20:02:30.137Z,1016.46
2022-08-02T20:07:40.678Z,1016.51
2022-08-02T20:12:16.005Z,1016.59
2022-08-02T20:17:08.125Z,1016.59
2022-08-02T20:22:00.865Z,1016.58
2022-08-02T20:26:53.390Z,1016.52
2022-08-02T20:31:45.921Z,1016.55
2022-08-02T20:36:38.366Z,1016.51
2022-08-02T20:41:36.706Z,1016.54
2022-08-02T20:46:23.539Z,1016.52
2022-08-02T20:51:16.114Z,1016.56
2022-08-02T20:56:08.728Z,1016.55
2022-08-02T21:01:01.469Z,1016.6
2022-08-02T21:05:56.066Z,1016.59
2022-08-02T21:10:50.229Z,1016.59
2022-08-02T21:15:39.098Z,1016.63
2022-08-02T21:20:31.789Z,1016.62
2022-08-02T21:25:24.316Z,1016.6
2022-08-02T21:30:17.350Z,1016.57
2022-08-02T21:35:09.636Z,1016.55
2022-08-02T21:40:02.246Z,1016.55
2022-08-02T21:44:54.734Z,1016.55
2022-08-02T21:50:09.978Z,1016.57
2022-08-02T21:54:41.033Z,1016.59
2022-08-02T21:59:32.861Z,1016.62
2022-08-02T22:04:25.698Z,1016.65
2022-08-02T22:09:42.567Z,1016.66
2022-08-02T22:14:12.072Z,1016.65
2022-08-02T22:19:05.796Z,1016.73
2022-08-02T22:23:57.260Z,1016.75
2022-08-02T22:33:46.811Z,1016.77
2022-08-02T22:38:35.067Z,1016.82
2022-08-02T22:43:27.619Z,1016.85
2022-08-02T22:53:07.695Z,1016.94
2022-08-02T22:59:09.109Z,1016.79
2022-08-02T23:05:27.337Z,1016.88
2022-08-02T23:13:26.679Z,1016.88
2022-08-02T23:18:05.978Z,1016.88
2022-08-02T23:22:57.433Z,1016.88
2022-08-02T23:27:49.945Z,1016.84
2022-08-02T23:43:12.545Z,1016.79
2022-08-02T23:51:16.333Z,1016.84
2022-08-02T23:55:57.260Z,1016.79
